Weather at S R P Tolleson Center Heliport

Public forecast

Using degrees Fahrenheit for public forecast. Weather courtesy of forecast.io.

Closest aviation weather report (METAR) to S R P Tolleson Center Heliport

Report is more than 2 hours old.

Closest report is Glendale Municipal Airport, 5.7 nm (10.5 km) NW. Retrieved 2021/02/27 02:58 UTC (2 hours ago):

KGEU 270258Z 00000KT 10SM SKC 14/M09 A2987 RMK LAST

Closest aviation forecast (TAF) to S R P Tolleson Center Heliport

Closest forecast is Luke Air Force Base, 9.2 nm (17.1 km) NW. Retrieved 2021-02-27 04:12 UTC (1 hour ago):

TAF KLUF 250400Z 2504/2610 VRB06KT 9999 SKC QNH2990INS BECMG 2515/2516 29012G18KT 9990 SKC QNH2995INS BECMG 2520/2521 27009KT 9999 SKC QNH2994INS TX26/2523Z TN08/2512Z